Time;durP1;ratioP1;P1;durP2;ratioP2;P2;SDS_P1;SDS_P2;PMS_P1;PMS_P2;Temp;Humidity;BMP_temperature;BMP_pressure;BME280_temperature;BME280_humidity;BME280_pressure;Samples;Min_cycle;Max_cycle;Signal;HPM_P1;HPM_P2
2022/01/24 00:02:22;;;;;;;28.23;9.00;;;5.60;99.90;;;;;;5035204;28;20363;-73
2022/01/24 00:04:49;;;;;;;41.85;11.43;;;5.60;99.90;;;;;;5035310;28;20022;-73
2022/01/24 00:07:19;;;;;;;16.80;9.05;;;5.60;99.90;;;;;;5034940;28;20432;-73
2022/01/24 00:09:44;;;;;;;23.73;10.82;;;5.70;99.90;;;;;;5035206;28;20108;-73
2022/01/24 00:12:31;;;;;;;23.90;11.07;;;5.60;99.90;;;;;;5035289;28;20479;-73
2022/01/24 00:15:25;;;;;;;26.77;12.55;;;5.60;99.90;;;;;;5035684;28;20466;-73
2022/01/24 00:17:51;;;;;;;21.85;11.40;;;5.60;99.90;;;;;;5034556;28;20107;-73
2022/01/24 00:28:24;;;;;;;;;;;5.60;99.90;;;;;;5035345;28;20044;-73
2022/01/24 00:30:50;;;;;;;39.10;12.70;;;5.60;99.90;;;;;;5034714;28;19912;-73
2022/01/24 00:33:18;;;;;;;26.50;11.27;;;5.60;99.90;;;;;;5034779;28;20394;-73
2022/01/24 00:35:44;;;;;;;23.58;12.00;;;5.60;99.90;;;;;;5034695;28;20018;-73
2022/01/24 00:38:09;;;;;;;30.95;12.75;;;5.60;99.90;;;;;;5034790;28;20075;-73
2022/01/24 00:40:40;;;;;;;32.63;13.43;;;5.50;99.90;;;;;;5034977;28;20093;-73
2022/01/24 00:43:28;;;;;;;43.40;16.67;;;5.50;99.90;;;;;;5035088;28;20017;-73
2022/01/24 00:46:01;;;;;;;24.00;13.88;;;5.50;99.90;;;;;;5034748;28;20014;-73
2022/01/24 00:48:50;;;;;;;23.35;13.00;;;5.50;99.90;;;;;;5035310;28;20036;-73
2022/01/24 00:56:25;;;;;;;34.80;13.80;;;5.50;99.90;;;;;;5033695;28;20029;-73
2022/01/24 00:58:51;;;;;;;26.77;14.05;;;5.50;99.90;;;;;;5034160;28;20033;-73
2022/01/24 01:01:16;;;;;;;31.25;13.13;;;5.50;99.90;;;;;;5034481;28;20021;-73
2022/01/24 01:03:42;;;;;;;35.55;13.95;;;5.50;99.90;;;;;;5034289;28;20029;-73
2022/01/24 01:06:09;;;;;;;27.60;14.23;;;5.50;99.90;;;;;;5034560;28;20099;-73
2022/01/24 01:19:35;;;;;;;16.08;8.35;;;5.50;99.90;;;;;;5033988;28;20056;-73
2022/01/24 01:22:00;;;;;;;27.02;8.55;;;5.40;99.90;;;;;;5033743;28;20148;-73
2022/01/24 01:24:28;;;;;;;23.40;9.07;;;5.50;99.90;;;;;;5033666;28;20386;-73
2022/01/24 01:27:09;;;;;;;21.67;9.38;;;5.50;99.90;;;;;;5033930;28;20522;-73
2022/01/24 01:29:54;;;;;;;22.85;9.18;;;5.50;99.90;;;;;;5033494;28;20466;-73
2022/01/24 01:32:38;;;;;;;29.08;9.27;;;5.50;99.90;;;;;;5033760;28;20481;-73
2022/01/24 01:35:20;;;;;;;21.92;9.38;;;5.50;99.90;;;;;;5033915;28;20022;-73
2022/01/24 01:56:14;;;;;;;37.38;11.45;;;5.50;99.90;;;;;;5033686;28;20033;-71
2022/01/24 01:58:39;;;;;;;32.70;11.90;;;5.50;99.90;;;;;;5033254;28;20037;-71
2022/01/24 02:01:05;;;;;;;62.10;16.48;;;5.60;99.90;;;;;;5033287;28;20026;-71
2022/01/24 02:03:32;;;;;;;29.63;12.95;;;5.60;99.90;;;;;;5033119;28;20473;-71
2022/01/24 02:05:58;;;;;;;32.72;13.13;;;5.60;99.90;;;;;;5033352;28;20078;-71
2022/01/24 02:08:27;;;;;;;33.38;13.82;;;5.60;99.90;;;;;;5035921;28;20112;-71
2022/01/24 02:10:54;;;;;;;37.20;13.32;;;5.60;99.90;;;;;;5036952;28;20030;-71
2022/01/24 02:13:21;;;;;;;36.58;12.63;;;5.60;99.90;;;;;;5036977;28;20032;-71
2022/01/24 02:16:03;;;;;;;39.28;12.63;;;5.60;99.90;;;;;;5037212;28;20053;-71
2022/01/24 02:21:24;;;;;;;39.55;14.55;;;5.60;99.90;;;;;;5037344;28;20021;-71
2022/01/24 02:23:49;;;;;;;36.40;14.02;;;5.60;99.90;;;;;;5037314;28;20484;-71
2022/01/24 02:26:19;;;;;;;34.17;13.35;;;5.60;99.90;;;;;;5036693;28;20022;-71
2022/01/24 02:33:48;;;;;;;37.05;13.20;;;5.70;99.90;;;;;;5037219;28;20021;-72
2022/01/24 02:36:20;;;;;;;36.75;13.73;;;5.70;99.90;;;;;;5036528;28;20021;-72
2022/01/24 02:39:05;;;;;;;39.65;15.98;;;5.70;99.90;;;;;;5036392;28;20454;-72
2022/01/24 02:49:33;;;;;;;33.95;14.45;;;5.60;99.90;;;;;;5036296;28;20124;-71
2022/01/24 02:52:10;;;;;;;40.63;16.73;;;5.60;99.90;;;;;;5036308;28;20025;-71
2022/01/24 02:54:37;;;;;;;30.92;14.45;;;5.60;99.90;;;;;;5036208;28;20056;-71
2022/01/24 02:57:04;;;;;;;45.58;16.42;;;5.70;99.90;;;;;;5036416;28;20025;-71
2022/01/24 02:59:30;;;;;;;37.60;15.85;;;5.60;99.90;;;;;;5035963;28;20029;-71
2022/01/24 03:01:56;;;;;;;36.22;14.38;;;5.70;99.90;;;;;;5036082;28;20022;-71
2022/01/24 03:04:22;;;;;;;42.17;13.77;;;5.60;99.90;;;;;;5035912;28;20084;-71
2022/01/24 03:06:47;;;;;;;32.50;14.32;;;5.70;99.90;;;;;;5035992;28;20033;-71
2022/01/24 03:09:14;;;;;;;42.90;15.23;;;5.70;99.90;;;;;;5035835;28;20088;-72
2022/01/24 03:12:01;;;;;;;32.97;13.52;;;5.60;99.90;;;;;;5036144;28;20037;-72
2022/01/24 03:14:29;;;;;;;32.60;13.75;;;5.70;99.90;;;;;;5035880;28;20109;-71
2022/01/24 03:16:55;;;;;;;32.38;12.38;;;5.70;99.90;;;;;;5035801;28;20021;-71
2022/01/24 03:19:21;;;;;;;27.13;13.75;;;5.70;99.90;;;;;;5034901;28;20078;-71
2022/01/24 03:21:46;;;;;;;36.40;12.75;;;5.70;99.90;;;;;;5035879;28;20075;-71
2022/01/24 03:24:14;;;;;;;28.13;11.55;;;5.70;99.90;;;;;;5035915;28;20021;-71
2022/01/24 03:26:40;;;;;;;33.38;12.65;;;5.70;99.90;;;;;;5035695;28;20103;-72
2022/01/24 03:29:06;;;;;;;39.72;13.57;;;5.70;99.90;;;;;;5035964;28;20025;-72
2022/01/24 03:31:34;;;;;;;30.17;10.57;;;5.70;99.90;;;;;;5035506;28;20549;-72
2022/01/24 03:34:00;;;;;;;26.30;13.82;;;5.70;99.90;;;;;;5035485;28;20032;-72
2022/01/24 03:36:25;;;;;;;33.97;13.98;;;5.70;99.90;;;;;;5035447;28;20037;-72
2022/01/24 03:38:51;;;;;;;36.28;13.25;;;5.80;99.90;;;;;;5035783;28;20425;-71
2022/01/24 03:41:17;;;;;;;28.25;13.20;;;5.70;99.90;;;;;;5035615;28;20052;-71
2022/01/24 03:43:43;;;;;;;35.88;14.35;;;5.70;99.90;;;;;;5035543;28;20021;-71
2022/01/24 03:46:24;;;;;;;36.15;13.90;;;5.70;99.90;;;;;;5035217;28;20032;-72
2022/01/24 03:48:53;;;;;;;47.58;14.93;;;5.70;99.90;;;;;;5035168;28;20173;-71
2022/01/24 03:51:20;;;;;;;39.17;15.25;;;5.70;99.90;;;;;;5035145;28;20033;-71
2022/01/24 03:53:46;;;;;;;38.35;14.85;;;5.70;99.90;;;;;;5035088;28;20028;-71
2022/01/24 03:56:12;;;;;;;33.60;13.52;;;5.70;99.90;;;;;;5035229;28;20060;-71
2022/01/24 03:58:38;;;;;;;43.95;17.00;;;5.70;99.90;;;;;;5035189;28;20022;-71
2022/01/24 04:01:06;;;;;;;46.45;17.25;;;5.70;99.90;;;;;;5017141;28;20067;-71
2022/01/24 04:03:33;;;;;;;36.08;15.13;;;5.70;99.90;;;;;;5034934;28;20022;-71
2022/01/24 04:05:58;;;;;;;41.22;16.13;;;5.70;99.90;;;;;;5034835;28;20021;-71
2022/01/24 04:08:24;;;;;;;31.30;16.00;;;5.70;99.90;;;;;;5034825;28;20358;-71
2022/01/24 04:10:54;;;;;;;36.72;15.65;;;5.70;99.90;;;;;;5034707;28;20393;-71
2022/01/24 04:13:33;;;;;;;35.35;15.30;;;5.70;99.90;;;;;;5034931;28;20413;-71
2022/01/24 04:21:35;;;;;;;40.95;16.35;;;5.70;99.90;;;;;;5034859;28;20022;-71
2022/01/24 04:24:06;;;;;;;41.67;16.30;;;5.60;99.90;;;;;;5034894;28;20488;-71
2022/01/24 04:26:34;;;;;;;37.10;14.60;;;5.60;99.90;;;;;;5034747;28;20381;-71
2022/01/24 04:29:00;;;;;;;41.28;15.82;;;5.60;99.90;;;;;;5034402;28;20025;-71
2022/01/24 04:31:27;;;;;;;30.08;14.75;;;5.60;99.90;;;;;;5034288;28;20028;-71
2022/01/24 04:33:53;;;;;;;31.60;14.48;;;5.70;99.90;;;;;;5034292;28;20030;-71
2022/01/24 04:36:20;;;;;;;38.33;14.63;;;5.60;99.90;;;;;;5034284;28;20097;-71
2022/01/24 04:38:47;;;;;;;34.15;14.95;;;5.70;99.90;;;;;;5016462;28;20022;-71
2022/01/24 04:41:23;;;;;;;34.33;15.38;;;5.60;99.90;;;;;;5034160;28;20029;-71
2022/01/24 04:56:37;;;;;;;41.97;15.68;;;5.60;99.90;;;;;;5034021;28;20036;-72
2022/01/24 04:59:02;;;;;;;39.03;16.23;;;5.60;99.90;;;;;;5034047;28;20405;-72
2022/01/24 05:01:28;;;;;;;34.15;16.55;;;5.60;99.90;;;;;;5034231;28;20020;-72
2022/01/24 05:03:53;;;;;;;38.22;16.52;;;5.60;99.90;;;;;;5034357;28;20029;-72
2022/01/24 05:06:19;;;;;;;47.83;18.67;;;5.60;99.90;;;;;;5033767;28;20022;-71
2022/01/24 05:08:45;;;;;;;32.00;15.85;;;5.60;99.90;;;;;;5033749;28;20041;-71
2022/01/24 05:11:15;;;;;;;37.03;16.55;;;5.60;99.90;;;;;;5033693;28;20120;-71
2022/01/24 05:24:36;;;;;;;39.22;17.27;;;5.60;99.90;;;;;;5033565;28;20466;-71
2022/01/24 05:27:03;;;;;;;48.88;16.65;;;5.60;99.90;;;;;;5033716;28;20105;-71
2022/01/24 05:29:28;;;;;;;32.47;16.63;;;5.60;99.90;;;;;;5033373;28;20505;-71
2022/01/24 05:31:55;;;;;;;39.83;18.30;;;5.60;99.90;;;;;;5033423;28;20029;-71
2022/01/24 05:34:21;;;;;;;43.22;18.30;;;5.60;99.90;;;;;;5033445;28;20128;-71
2022/01/24 05:36:47;;;;;;;45.90;17.27;;;5.60;99.90;;;;;;5033833;28;20112;-71
2022/01/24 05:39:13;;;;;;;38.38;18.58;;;5.60;99.90;;;;;;5033440;28;20105;-71
2022/01/24 05:41:39;;;;;;;37.22;18.30;;;5.60;99.90;;;;;;5033027;28;20033;-71
2022/01/24 05:44:05;;;;;;;39.53;17.88;;;5.60;99.90;;;;;;5033317;28;20428;-71
2022/01/24 05:46:31;;;;;;;38.45;17.63;;;5.60;99.90;;;;;;5033244;28;20029;-72
2022/01/24 05:48:57;;;;;;;44.08;16.63;;;5.60;99.90;;;;;;5033103;28;20036;-72
2022/01/24 05:51:24;;;;;;;52.00;18.48;;;5.60;99.90;;;;;;5033322;28;20397;-71
2022/01/24 05:53:50;;;;;;;46.17;17.25;;;5.60;99.90;;;;;;5033439;28;20024;-71
2022/01/24 05:56:16;;;;;;;36.20;17.23;;;5.60;99.90;;;;;;5016035;28;20564;-71
2022/01/24 05:58:42;;;;;;;37.58;18.23;;;5.60;99.90;;;;;;5035127;28;20068;-72
2022/01/24 06:01:08;;;;;;;41.47;17.98;;;5.60;99.90;;;;;;5033509;28;20378;-72
2022/01/24 06:03:33;;;;;;;47.13;18.98;;;5.60;99.90;;;;;;5033420;28;20057;-72
2022/01/24 06:05:59;;;;;;;42.65;19.48;;;5.60;99.90;;;;;;5033123;28;20484;-72
2022/01/24 06:08:24;;;;;;;43.33;19.92;;;5.60;99.90;;;;;;5033047;28;20100;-72
2022/01/24 06:10:50;;;;;;;40.13;19.45;;;5.60;99.90;;;;;;5033221;28;20032;-72
2022/01/24 06:13:16;;;;;;;42.67;18.98;;;5.60;99.90;;;;;;5033050;28;20057;-72
2022/01/24 06:15:42;;;;;;;50.20;19.83;;;5.60;99.90;;;;;;5033019;28;20021;-72
2022/01/24 06:18:08;;;;;;;49.85;20.85;;;5.60;99.90;;;;;;5033018;28;20025;-72
2022/01/24 06:20:34;;;;;;;46.97;20.38;;;5.50;99.90;;;;;;5032832;28;20473;-72
2022/01/24 06:22:59;;;;;;;54.13;21.05;;;5.50;99.90;;;;;;5033198;28;20032;-72
2022/01/24 06:25:25;;;;;;;48.38;21.20;;;5.50;99.90;;;;;;5032930;28;20057;-72
2022/01/24 06:27:52;;;;;;;51.30;21.00;;;5.40;99.90;;;;;;5032895;28;20037;-72
2022/01/24 06:30:18;;;;;;;49.67;20.00;;;5.40;99.90;;;;;;5032828;28;20470;-72
2022/01/24 06:32:43;;;;;;;53.55;21.23;;;5.40;99.90;;;;;;5033087;28;20048;-72
2022/01/24 06:35:10;;;;;;;51.70;21.23;;;5.40;99.90;;;;;;5033113;28;20026;-72
2022/01/24 06:37:37;;;;;;;47.45;20.73;;;5.40;99.90;;;;;;5033069;28;20072;-72
2022/01/24 06:40:08;;;;;;;40.72;18.20;;;5.40;99.90;;;;;;5032609;28;20103;-72
2022/01/24 06:42:34;;;;;;;41.33;19.55;;;5.40;99.90;;;;;;5032745;28;20028;-72
2022/01/24 06:44:59;;;;;;;40.63;20.17;;;5.40;99.90;;;;;;5033023;28;20382;-72
2022/01/24 06:47:25;;;;;;;49.13;17.90;;;5.40;99.90;;;;;;5032680;28;20034;-72
2022/01/24 06:49:52;;;;;;;42.70;18.40;;;5.30;99.90;;;;;;5032506;28;20041;-72
2022/01/24 06:52:18;;;;;;;39.30;16.23;;;5.30;99.90;;;;;;5032940;28;20026;-72
2022/01/24 06:54:44;;;;;;;35.38;16.40;;;5.30;99.90;;;;;;5034212;28;20385;-72
2022/01/24 06:57:11;;;;;;;41.58;16.63;;;5.30;99.90;;;;;;5036209;28;20492;-72
2022/01/24 06:59:41;;;;;;;30.65;15.20;;;5.30;99.90;;;;;;5035997;28;20048;-72
2022/01/24 07:02:08;;;;;;;37.40;15.57;;;5.40;99.90;;;;;;5036147;28;20048;-72
2022/01/24 07:04:33;;;;;;;43.53;15.75;;;5.40;99.90;;;;;;5036340;28;20036;-72
2022/01/24 07:06:59;;;;;;;27.98;12.73;;;5.30;99.90;;;;;;5036003;28;20104;-72
2022/01/24 07:09:25;;;;;;;31.95;13.32;;;5.40;99.90;;;;;;5035883;28;20025;-72
2022/01/24 07:11:51;;;;;;;25.98;11.32;;;5.30;99.90;;;;;;5035924;28;20025;-72
2022/01/24 07:14:17;;;;;;;29.25;11.45;;;5.40;99.90;;;;;;5036433;28;20075;-72
2022/01/24 07:19:21;;;;;;;34.58;11.70;;;5.40;99.90;;;;;;5036151;28;20029;-72
2022/01/24 07:21:47;;;;;;;32.90;9.50;;;5.40;99.90;;;;;;5035721;28;20083;-72
2022/01/24 07:24:12;;;;;;;29.15;8.82;;;5.50;99.90;;;;;;5036241;28;20057;-72
2022/01/24 07:26:38;;;;;;;27.60;8.70;;;5.50;99.90;;;;;;5036148;28;20359;-72
2022/01/24 07:29:04;;;;;;;32.17;7.15;;;5.50;99.90;;;;;;5035514;28;20104;-72
2022/01/24 07:31:29;;;;;;;18.73;7.70;;;5.50;99.90;;;;;;5035551;28;20470;-72
2022/01/24 07:33:55;;;;;;;21.80;9.65;;;5.50;99.90;;;;;;5036027;28;20113;-72
2022/01/24 07:36:22;;;;;;;19.67;7.60;;;5.50;99.90;;;;;;5035501;28;20398;-72
2022/01/24 07:38:47;;;;;;;23.90;7.70;;;5.50;99.90;;;;;;5035314;28;20025;-72
2022/01/24 07:41:15;;;;;;;27.05;7.32;;;5.50;99.90;;;;;;5035298;28;20075;-72
2022/01/24 07:43:40;;;;;;;22.17;7.90;;;5.50;99.90;;;;;;5035310;28;20025;-72
2022/01/24 07:46:06;;;;;;;24.00;7.30;;;5.60;99.90;;;;;;5035543;28;20022;-72
2022/01/24 07:48:32;;;;;;;16.20;6.43;;;5.60;99.90;;;;;;5035528;28;20032;-72
2022/01/24 07:50:57;;;;;;;25.17;8.40;;;5.50;99.90;;;;;;5100442;22;20100;-67
2022/01/24 07:53:24;;;;;;;24.35;8.00;;;5.50;99.90;;;;;;5055412;28;20100;-68
2022/01/24 07:55:51;;;;;;;44.00;9.15;;;5.50;99.90;;;;;;5055050;28;20017;-68
2022/01/24 07:58:16;;;;;;;29.75;10.32;;;5.60;99.90;;;;;;5055302;28;20427;-68
2022/01/24 08:00:42;;;;;;;29.65;9.55;;;5.50;99.90;;;;;;5054900;28;20029;-68
2022/01/24 08:03:08;;;;;;;29.83;10.35;;;5.50;99.90;;;;;;5054987;28;20025;-68
2022/01/24 08:05:35;;;;;;;24.95;10.48;;;5.60;99.90;;;;;;5054444;28;20025;-67
2022/01/24 08:08:01;;;;;;;25.88;9.82;;;5.50;99.90;;;;;;5054852;28;20023;-67
2022/01/24 08:10:26;;;;;;;21.27;8.93;;;5.50;99.90;;;;;;5054992;28;20478;-67
2022/01/24 08:12:52;;;;;;;21.92;10.68;;;5.50;99.90;;;;;;5054673;28;20104;-67
2022/01/24 08:15:17;;;;;;;27.45;11.68;;;5.50;99.90;;;;;;5054679;28;20021;-67
2022/01/24 08:17:47;;;;;;;26.75;10.45;;;5.50;99.90;;;;;;5054587;28;20025;-67
2022/01/24 08:20:15;;;;;;;23.58;11.52;;;5.50;99.90;;;;;;5054411;28;20025;-67
2022/01/24 08:22:42;;;;;;;22.67;10.85;;;5.50;99.90;;;;;;5054777;28;20025;-67
2022/01/24 08:25:09;;;;;;;24.95;10.88;;;5.50;99.90;;;;;;5054754;28;20021;-67
2022/01/24 08:27:36;;;;;;;23.10;10.05;;;5.50;99.90;;;;;;5054405;28;20027;-67
2022/01/24 08:30:11;;;;;;;29.50;11.52;;;5.60;99.90;;;;;;5054336;28;20029;-68
2022/01/24 08:32:37;;;;;;;23.02;11.95;;;5.60;99.90;;;;;;5054659;28;20025;-68
2022/01/24 08:35:04;;;;;;;27.67;13.68;;;5.50;99.90;;;;;;5054273;28;20021;-68
2022/01/24 08:37:30;;;;;;;22.10;14.25;;;5.50;99.90;;;;;;5054278;28;20029;-67
2022/01/24 08:39:57;;;;;;;28.92;12.98;;;5.50;99.90;;;;;;5054326;28;20384;-68
2022/01/24 08:42:38;;;;;;;18.88;11.82;;;5.50;99.90;;;;;;5054162;28;20017;-68
2022/01/24 08:47:49;;;;;;;29.95;13.70;;;5.50;99.90;;;;;;5054681;28;20032;-68
2022/01/24 08:50:14;;;;;;;26.23;13.00;;;5.60;99.90;;;;;;5053825;28;20029;-68
2022/01/24 08:52:40;;;;;;;37.08;13.18;;;5.50;99.90;;;;;;5054264;28;20033;-68
2022/01/24 08:55:06;;;;;;;27.92;14.30;;;5.50;99.90;;;;;;5054186;28;20086;-68
2022/01/24 08:57:31;;;;;;;23.10;14.00;;;5.60;99.90;;;;;;5054480;28;20025;-68
2022/01/24 08:59:57;;;;;;;22.13;13.20;;;5.50;99.90;;;;;;5054286;28;20082;-67
2022/01/24 09:02:23;;;;;;;23.70;13.25;;;5.50;99.90;;;;;;5054345;28;20025;-67
2022/01/24 09:04:49;;;;;;;29.42;11.25;;;5.50;99.90;;;;;;5053724;28;20025;-66
2022/01/24 09:07:17;;;;;;;16.45;10.48;;;5.60;99.90;;;;;;5053729;28;20028;-67
2022/01/24 09:09:43;;;;;;;17.17;10.88;;;5.50;99.90;;;;;;5053881;28;20029;-67
2022/01/24 09:12:12;;;;;;;26.20;11.43;;;5.60;99.90;;;;;;5053845;28;20025;-68
2022/01/24 09:14:43;;;;;;;22.70;12.60;;;5.60;99.90;;;;;;5053871;28;20100;-68
2022/01/24 09:17:10;;;;;;;30.20;12.38;;;5.50;99.90;;;;;;5053381;28;20052;-68
2022/01/24 09:19:36;;;;;;;28.55;12.23;;;5.60;99.90;;;;;;5053736;28;20036;-68
2022/01/24 09:22:02;;;;;;;20.15;11.85;;;5.50;99.90;;;;;;5053707;28;20017;-68
2022/01/24 09:24:28;;;;;;;25.90;12.38;;;5.50;99.90;;;;;;5053759;28;20104;-68
2022/01/24 09:26:53;;;;;;;23.45;14.35;;;5.50;99.90;;;;;;5053708;28;20028;-68
2022/01/24 09:29:19;;;;;;;21.42;13.88;;;5.50;99.90;;;;;;5053725;28;20037;-68
2022/01/24 09:31:44;;;;;;;23.45;14.25;;;5.50;99.90;;;;;;5053316;28;20446;-67
2022/01/24 09:34:10;;;;;;;35.40;15.20;;;5.50;99.90;;;;;;5053594;28;20033;-68
2022/01/24 09:36:36;;;;;;;33.53;15.25;;;5.50;99.90;;;;;;5053508;28;20021;-68
2022/01/24 09:39:01;;;;;;;29.13;15.40;;;5.50;99.90;;;;;;5053127;28;20035;-68
2022/01/24 09:41:27;;;;;;;24.17;11.90;;;5.50;99.90;;;;;;5053277;28;20530;-68
2022/01/24 09:43:53;;;;;;;25.33;12.90;;;5.50;99.90;;;;;;5053279;28;20021;-68
2022/01/24 09:46:18;;;;;;;31.08;14.63;;;5.60;99.90;;;;;;5053230;28;20025;-68
2022/01/24 09:48:44;;;;;;;35.38;15.55;;;5.60;99.90;;;;;;5053212;28;20033;-68
2022/01/24 09:51:10;;;;;;;23.85;14.23;;;5.60;99.90;;;;;;5053168;28;20094;-68
2022/01/24 09:53:37;;;;;;;31.38;13.85;;;5.60;99.90;;;;;;5053396;28;20100;-68
2022/01/24 09:56:03;;;;;;;28.95;15.88;;;5.60;99.90;;;;;;5053109;28;20028;-68
2022/01/24 09:58:30;;;;;;;30.77;16.10;;;5.60;99.90;;;;;;5053056;28;20024;-67
2022/01/24 10:00:56;;;;;;;39.63;16.95;;;5.60;99.90;;;;;;5053144;28;20111;-67
2022/01/24 10:03:24;;;;;;;32.75;18.13;;;5.60;99.90;;;;;;5053647;28;20496;-67
2022/01/24 10:05:55;;;;;;;26.83;17.13;;;5.60;99.90;;;;;;5053305;28;20059;-68
2022/01/24 10:08:24;;;;;;;28.85;16.15;;;5.60;99.90;;;;;;5053312;28;20099;-68
2022/01/24 10:10:51;;;;;;;33.47;13.98;;;5.60;99.90;;;;;;5052921;28;20024;-68
2022/01/24 10:16:25;;;;;;;34.15;16.65;;;5.60;99.90;;;;;;5053294;28;20039;-68
2022/01/24 10:19:16;;;;;;;40.65;23.08;;;5.70;99.90;;;;;;5053149;28;20025;-68
2022/01/24 10:21:49;;;;;;;46.78;23.42;;;5.60;99.90;;;;;;5052877;28;20025;-68
2022/01/24 10:24:26;;;;;;;60.70;25.03;;;5.50;99.90;;;;;;5052912;28;20115;-68
2022/01/24 10:27:17;;;;;;;47.75;26.25;;;5.50;99.90;;;;;;5052794;28;20264;-68
2022/01/24 10:29:47;;;;;;;53.22;26.42;;;5.40;99.90;;;;;;5056357;28;20029;-68
2022/01/24 10:32:41;;;;;;;63.75;26.10;;;5.30;99.90;;;;;;5056647;28;20048;-68
2022/01/24 10:35:26;;;;;;;61.40;25.83;;;5.30;99.90;;;;;;5057691;28;20032;-67
2022/01/24 10:38:18;;;;;;;54.88;25.95;;;5.30;99.90;;;;;;5038649;28;20485;-67
2022/01/24 10:40:52;;;;;;;49.83;26.98;;;5.30;99.90;;;;;;5056531;28;20104;-67
2022/01/24 10:43:22;;;;;;;56.58;27.67;;;5.30;99.90;;;;;;5056745;28;20036;-67
2022/01/24 10:45:49;;;;;;;64.18;28.55;;;5.30;99.90;;;;;;5056410;28;20427;-67
2022/01/24 10:48:21;;;;;;;58.10;28.40;;;5.20;99.90;;;;;;5056350;28;20059;-67
2022/01/24 10:50:47;;;;;;;66.07;28.27;;;5.20;99.90;;;;;;5056242;28;20043;-67
2022/01/24 10:53:15;;;;;;;70.13;28.77;;;5.20;99.90;;;;;;5056252;28;20448;-67
2022/01/24 10:55:43;;;;;;;55.63;27.58;;;5.20;99.90;;;;;;5056186;28;20025;-67
2022/01/24 10:58:17;;;;;;;52.83;28.10;;;5.20;99.90;;;;;;5056126;28;20035;-67
2022/01/24 11:00:44;;;;;;;56.15;27.77;;;5.20;99.90;;;;;;5056031;28;20060;-67
2022/01/24 11:03:19;;;;;;;61.55;29.70;;;5.20;99.90;;;;;;5056320;28;20025;-67
2022/01/24 11:05:46;;;;;;;53.40;28.83;;;5.20;99.90;;;;;;5056403;28;20029;-67
2022/01/24 11:08:14;;;;;;;56.92;29.58;;;5.20;99.90;;;;;;5056180;28;20029;-67
2022/01/24 11:10:43;;;;;;;63.55;30.83;;;5.20;99.90;;;;;;5055765;28;20477;-67
2022/01/24 11:13:10;;;;;;;61.53;31.67;;;5.20;99.90;;;;;;5056145;28;20393;-67
2022/01/24 11:15:39;;;;;;;55.45;31.33;;;5.20;99.90;;;;;;5055830;28;20028;-68
2022/01/24 11:18:06;;;;;;;60.25;30.70;;;5.20;99.90;;;;;;5055769;28;20048;-68
2022/01/24 11:20:35;;;;;;;65.15;31.45;;;5.20;99.90;;;;;;5037958;28;20151;-68
2022/01/24 11:23:05;;;;;;;60.90;32.83;;;5.20;99.90;;;;;;5056016;28;20025;-67
2022/01/24 11:25:37;;;;;;;67.47;31.17;;;5.20;99.90;;;;;;5055620;28;20048;-67
2022/01/24 11:28:04;;;;;;;66.15;32.95;;;5.20;99.90;;;;;;5055858;28;20108;-66
2022/01/24 11:30:47;;;;;;;60.00;33.10;;;5.20;99.90;;;;;;5055757;28;20465;-68
2022/01/24 11:33:19;;;;;;;72.20;34.22;;;5.30;99.90;;;;;;5055748;28;20021;-68
2022/01/24 11:35:51;;;;;;;62.25;31.40;;;5.30;99.90;;;;;;5055717;28;20040;-68
2022/01/24 11:38:31;;;;;;;67.28;33.30;;;5.30;99.90;;;;;;5055724;28;20060;-66
2022/01/24 11:41:06;;;;;;;67.35;33.10;;;5.30;99.90;;;;;;5054730;28;20099;-66
2022/01/24 11:43:35;;;;;;;75.68;34.90;;;5.30;99.90;;;;;;5055585;28;20044;-66
2022/01/24 11:46:07;;;;;;;81.72;34.92;;;5.30;99.90;;;;;;5055270;28;20053;-66
2022/01/24 11:48:34;;;;;;;63.33;34.80;;;5.30;99.90;;;;;;5055568;28;20017;-68
2022/01/24 11:51:06;;;;;;;66.70;33.15;;;5.30;99.90;;;;;;5055003;28;20450;-68
2022/01/24 11:53:36;;;;;;;59.78;33.80;;;5.40;99.90;;;;;;5055219;28;20021;-68
2022/01/24 11:56:32;;;;;;;68.70;35.80;;;5.40;99.90;;;;;;5055663;28;20456;-67
2022/01/24 11:59:17;;;;;;;68.38;34.10;;;5.40;99.90;;;;;;5055562;28;20021;-67
2022/01/24 12:01:45;;;;;;;72.78;37.05;;;5.40;99.90;;;;;;5054903;28;20028;-67
2022/01/24 12:04:11;;;;;;;79.15;36.80;;;5.40;99.90;;;;;;5054929;28;20131;-67
2022/01/24 12:07:25;;;;;;;71.25;37.50;;;5.50;99.90;;;;;;5055175;28;20063;-67
2022/01/24 12:09:52;;;;;;;76.82;36.47;;;5.50;99.90;;;;;;4919827;29;20114;-67
2022/01/24 12:12:36;;;;;;;72.97;39.65;;;5.50;99.90;;;;;;4935601;29;20036;-67
2022/01/24 12:15:04;;;;;;;72.82;40.13;;;5.50;99.90;;;;;;5015542;28;20073;-67
2022/01/24 12:17:52;;;;;;;73.80;39.55;;;5.40;99.90;;;;;;5054835;28;20029;-68
2022/01/24 12:20:40;;;;;;;76.18;39.15;;;5.50;99.90;;;;;;5054407;28;20436;-68
2022/01/24 12:23:19;;;;;;;76.00;38.72;;;5.50;99.90;;;;;;5036079;28;20029;-68
2022/01/24 12:26:08;;;;;;;76.75;38.58;;;5.50;99.90;;;;;;5054437;28;20096;-67
2022/01/24 12:28:45;;;;;;;77.82;41.33;;;5.40;99.90;;;;;;5054674;28;20026;-67
2022/01/24 12:31:26;;;;;;;70.15;38.80;;;5.40;99.90;;;;;;5054284;28;20027;-67
2022/01/24 12:33:55;;;;;;;85.72;41.72;;;5.50;99.90;;;;;;5054653;28;20485;-67
2022/01/24 12:36:47;;;;;;;88.53;43.15;;;5.50;99.90;;;;;;5054312;28;20029;-67
2022/01/24 12:39:46;;;;;;;81.50;41.65;;;5.40;99.90;;;;;;5054487;28;20027;-67
2022/01/24 12:42:25;;;;;;;82.38;42.08;;;5.50;99.90;;;;;;5054497;28;20120;-67
2022/01/24 12:47:23;;;;;;;86.10;44.10;;;5.50;99.90;;;;;;5054369;28;20457;-67
2022/01/24 12:49:52;;;;;;;80.50;41.85;;;5.50;99.90;;;;;;5053860;28;20025;-68
2022/01/24 12:52:21;;;;;;;83.60;40.33;;;5.50;99.90;;;;;;5054551;28;20476;-68
2022/01/24 12:54:53;;;;;;;87.30;43.38;;;5.50;99.90;;;;;;5053944;28;20389;-68
2022/01/24 12:57:22;;;;;;;86.38;42.30;;;5.50;99.90;;;;;;5054224;28;20109;-68
2022/01/24 12:59:51;;;;;;;81.40;41.58;;;5.50;99.90;;;;;;5053994;28;20154;-68
2022/01/24 13:02:23;;;;;;;93.05;43.30;;;5.50;99.90;;;;;;5053979;28;20066;-68
2022/01/24 13:04:51;;;;;;;81.97;41.22;;;5.50;99.90;;;;;;5054107;28;20017;-68
2022/01/24 13:07:17;;;;;;;70.85;41.75;;;5.40;99.90;;;;;;5053770;28;20021;-67
2022/01/24 13:09:42;;;;;;;95.32;45.60;;;5.40;99.90;;;;;;5053656;28;20025;-67
2022/01/24 13:12:10;;;;;;;84.22;43.63;;;5.50;99.90;;;;;;5053757;28;20029;-68
2022/01/24 13:14:45;;;;;;;82.72;44.53;;;5.50;99.90;;;;;;5053839;28;20033;-67
2022/01/24 13:22:59;;;;;;;85.70;44.38;;;5.50;99.90;;;;;;5053768;28;20136;-67
2022/01/24 13:25:30;;;;;;;90.07;46.78;;;5.40;99.90;;;;;;5053543;28;20017;-67
2022/01/24 13:27:59;;;;;;;105.60;49.28;;;5.40;99.90;;;;;;5053768;28;20028;-67
2022/01/24 13:30:28;;;;;;;89.63;45.08;;;5.40;99.90;;;;;;5053426;28;20085;-67
2022/01/24 13:33:05;;;;;;;92.97;44.42;;;5.40;99.90;;;;;;5053433;28;20047;-68
2022/01/24 13:35:34;;;;;;;98.63;47.35;;;5.40;99.90;;;;;;5053694;28;20049;-68
2022/01/24 13:38:12;;;;;;;95.97;48.08;;;5.40;99.90;;;;;;5053373;28;20075;-68
2022/01/24 13:40:53;;;;;;;96.93;48.88;;;5.40;99.90;;;;;;5053412;28;20025;-68
2022/01/24 13:43:48;;;;;;;101.00;51.10;;;5.40;99.90;;;;;;5053627;28;20086;-67
2022/01/24 13:46:32;;;;;;;103.82;49.15;;;5.40;99.90;;;;;;5035882;28;20033;-67
2022/01/24 13:49:13;;;;;;;108.82;52.17;;;5.40;99.90;;;;;;5053271;28;20051;-67
2022/01/24 13:51:47;;;;;;;103.20;49.00;;;5.40;99.90;;;;;;5054117;28;20443;-68
2022/01/24 13:54:18;;;;;;;116.72;53.55;;;5.40;99.90;;;;;;5053437;28;20040;-67
2022/01/24 13:56:55;;;;;;;103.10;47.95;;;5.50;99.90;;;;;;5053517;28;20024;-67
2022/01/24 13:59:25;;;;;;;103.40;47.50;;;5.50;99.90;;;;;;5053417;28;20025;-67
2022/01/24 14:02:02;;;;;;;108.72;46.40;;;5.40;99.90;;;;;;5053190;28;20028;-67
2022/01/24 14:04:49;;;;;;;91.68;45.83;;;5.40;99.90;;;;;;5056488;28;20017;-67
2022/01/24 14:07:33;;;;;;;87.28;44.58;;;5.50;99.90;;;;;;5057701;28;20055;-68
2022/01/24 14:10:03;;;;;;;92.32;45.80;;;5.40;99.90;;;;;;5057025;28;20048;-68
2022/01/24 14:12:53;;;;;;;87.78;45.17;;;5.40;99.90;;;;;;5057192;28;20032;-67
2022/01/24 14:15:40;;;;;;;87.03;42.33;;;5.50;99.90;;;;;;5057279;28;20524;-67
2022/01/24 14:20:41;;;;;;;83.97;43.97;;;5.40;99.90;;;;;;5941586;22;20108;-68
2022/01/24 14:23:35;;;;;;;106.93;47.03;;;5.50;99.90;;;;;;5017249;28;20030;-68
2022/01/24 14:26:20;;;;;;;103.25;47.83;;;5.50;99.90;;;;;;5017354;28;20029;-69
2022/01/24 14:28:48;;;;;;;78.18;40.10;;;5.50;99.90;;;;;;5016927;28;20022;-69
2022/01/24 14:31:15;;;;;;;76.15;37.22;;;5.40;99.90;;;;;;5017508;28;20050;-69
2022/01/24 14:33:43;;;;;;;68.03;34.53;;;5.40;99.90;;;;;;5017120;28;20072;-68
2022/01/24 14:36:17;;;;;;;59.60;32.58;;;5.40;99.90;;;;;;5016919;28;20040;-69
2022/01/24 14:38:47;;;;;;;73.45;32.63;;;5.50;99.90;;;;;;5016729;28;20105;-69
2022/01/24 14:41:17;;;;;;;73.60;32.75;;;5.40;99.90;;;;;;5017151;28;20014;-68